sensor_id;sensor_type;location;lat;lon;timestamp;P1;durP1;ratioP1;P2;durP2;ratioP2
62947;SDS011;51940;52.126;-0.994;2022-12-11T00:01:56;39.60;;;18.30;;
62947;SDS011;51940;52.126;-0.994;2022-12-11T00:04:21;40.40;;;18.40;;
62947;SDS011;51940;52.126;-0.994;2022-12-11T00:06:47;38.20;;;18.60;;
62947;SDS011;51940;52.126;-0.994;2022-12-11T00:09:15;36.00;;;19.00;;
62947;SDS011;51940;52.126;-0.994;2022-12-11T00:11:41;33.30;;;17.10;;
62947;SDS011;51940;52.126;-0.994;2022-12-11T00:14:06;46.70;;;18.60;;
62947;SDS011;51940;52.126;-0.994;2022-12-11T00:16:32;41.30;;;17.20;;
62947;SDS011;51940;52.126;-0.994;2022-12-11T00:18:57;36.10;;;17.20;;
62947;SDS011;51940;52.126;-0.994;2022-12-11T00:21:23;35.80;;;17.50;;
62947;SDS011;51940;52.126;-0.994;2022-12-11T00:23:50;38.60;;;16.80;;
62947;SDS011;51940;52.126;-0.994;2022-12-11T00:26:15;44.60;;;17.00;;
62947;SDS011;51940;52.126;-0.994;2022-12-11T00:28:41;35.50;;;16.60;;
62947;SDS011;51940;52.126;-0.994;2022-12-11T00:31:10;37.70;;;17.00;;
62947;SDS011;51940;52.126;-0.994;2022-12-11T00:33:39;40.30;;;16.90;;
62947;SDS011;51940;52.126;-0.994;2022-12-11T00:36:09;36.60;;;16.90;;
62947;SDS011;51940;52.126;-0.994;2022-12-11T00:38:37;36.00;;;16.50;;
62947;SDS011;51940;52.126;-0.994;2022-12-11T00:41:02;39.60;;;17.90;;
62947;SDS011;51940;52.126;-0.994;2022-12-11T00:43:31;38.10;;;16.80;;
62947;SDS011;51940;52.126;-0.994;2022-12-11T00:45:56;37.90;;;17.40;;
62947;SDS011;51940;52.126;-0.994;2022-12-11T00:48:21;35.40;;;16.80;;
62947;SDS011;51940;52.126;-0.994;2022-12-11T00:50:47;34.60;;;16.50;;
62947;SDS011;51940;52.126;-0.994;2022-12-11T00:53:12;33.70;;;16.90;;
62947;SDS011;51940;52.126;-0.994;2022-12-11T00:55:38;33.80;;;16.30;;
62947;SDS011;51940;52.126;-0.994;2022-12-11T00:58:05;37.90;;;17.10;;
62947;SDS011;51940;52.126;-0.994;2022-12-11T01:00:31;35.20;;;16.70;;
62947;SDS011;51940;52.126;-0.994;2022-12-11T01:02:57;37.30;;;17.90;;
62947;SDS011;51940;52.126;-0.994;2022-12-11T01:05:22;39.40;;;17.60;;
62947;SDS011;51940;52.126;-0.994;2022-12-11T01:07:48;37.00;;;17.40;;
62947;SDS011;51940;52.126;-0.994;2022-12-11T01:10:13;46.60;;;17.90;;
62947;SDS011;51940;52.126;-0.994;2022-12-11T01:15:18;38.20;;;18.00;;
62947;SDS011;51940;52.126;-0.994;2022-12-11T01:17:47;50.10;;;18.50;;
62947;SDS011;51940;52.126;-0.994;2022-12-11T01:20:12;43.00;;;17.50;;
62947;SDS011;51940;52.126;-0.994;2022-12-11T01:22:38;47.20;;;18.30;;
62947;SDS011;51940;52.126;-0.994;2022-12-11T01:25:04;61.90;;;19.80;;
62947;SDS011;51940;52.126;-0.994;2022-12-11T01:27:29;51.30;;;18.10;;
62947;SDS011;51940;52.126;-0.994;2022-12-11T01:29:55;45.10;;;18.20;;
62947;SDS011;51940;52.126;-0.994;2022-12-11T01:32:21;55.70;;;19.70;;
62947;SDS011;51940;52.126;-0.994;2022-12-11T01:34:46;56.10;;;20.80;;
62947;SDS011;51940;52.126;-0.994;2022-12-11T01:37:12;54.60;;;21.80;;
62947;SDS011;51940;52.126;-0.994;2022-12-11T01:39:37;59.30;;;21.30;;
62947;SDS011;51940;52.126;-0.994;2022-12-11T01:42:03;52.80;;;19.20;;
62947;SDS011;51940;52.126;-0.994;2022-12-11T01:46:56;59.30;;;20.80;;
62947;SDS011;51940;52.126;-0.994;2022-12-11T01:49:23;61.50;;;21.00;;
62947;SDS011;51940;52.126;-0.994;2022-12-11T01:51:55;63.80;;;20.80;;
62947;SDS011;51940;52.126;-0.994;2022-12-11T01:54:27;59.60;;;21.20;;
62947;SDS011;51940;52.126;-0.994;2022-12-11T01:56:55;59.80;;;21.50;;
62947;SDS011;51940;52.126;-0.994;2022-12-11T01:59:26;54.10;;;20.60;;
62947;SDS011;51940;52.126;-0.994;2022-12-11T02:04:29;57.90;;;21.90;;
62947;SDS011;51940;52.126;-0.994;2022-12-11T02:06:56;61.40;;;24.00;;
62947;SDS011;51940;52.126;-0.994;2022-12-11T02:09:22;51.20;;;21.50;;
62947;SDS011;51940;52.126;-0.994;2022-12-11T02:14:50;47.60;;;19.60;;
62947;SDS011;51940;52.126;-0.994;2022-12-11T02:17:40;43.70;;;19.80;;
62947;SDS011;51940;52.126;-0.994;2022-12-11T02:20:21;54.10;;;20.70;;
62947;SDS011;51940;52.126;-0.994;2022-12-11T02:31:12;54.10;;;22.20;;
62947;SDS011;51940;52.126;-0.994;2022-12-11T02:36:42;52.20;;;23.30;;
62947;SDS011;51940;52.126;-0.994;2022-12-11T02:39:13;52.00;;;21.80;;
62947;SDS011;51940;52.126;-0.994;2022-12-11T02:41:42;52.90;;;22.40;;
62947;SDS011;51940;52.126;-0.994;2022-12-11T02:44:12;51.10;;;21.50;;
62947;SDS011;51940;52.126;-0.994;2022-12-11T02:46:40;48.90;;;21.80;;
62947;SDS011;51940;52.126;-0.994;2022-12-11T02:49:08;49.80;;;20.70;;
62947;SDS011;51940;52.126;-0.994;2022-12-11T02:51:41;52.90;;;21.20;;
62947;SDS011;51940;52.126;-0.994;2022-12-11T02:54:11;50.30;;;20.40;;
62947;SDS011;51940;52.126;-0.994;2022-12-11T02:56:45;48.70;;;20.60;;
62947;SDS011;51940;52.126;-0.994;2022-12-11T02:59:16;47.90;;;20.50;;
62947;SDS011;51940;52.126;-0.994;2022-12-11T03:01:47;45.40;;;20.70;;
62947;SDS011;51940;52.126;-0.994;2022-12-11T03:04:14;48.50;;;20.10;;
62947;SDS011;51940;52.126;-0.994;2022-12-11T03:06:41;48.10;;;19.80;;
62947;SDS011;51940;52.126;-0.994;2022-12-11T03:09:10;43.60;;;19.00;;
62947;SDS011;51940;52.126;-0.994;2022-12-11T03:11:36;43.90;;;19.10;;
62947;SDS011;51940;52.126;-0.994;2022-12-11T03:14:01;42.40;;;17.90;;
62947;SDS011;51940;52.126;-0.994;2022-12-11T03:16:29;39.10;;;18.00;;
62947;SDS011;51940;52.126;-0.994;2022-12-11T03:21:45;37.90;;;18.70;;
62947;SDS011;51940;52.126;-0.994;2022-12-11T03:30:10;38.30;;;17.90;;
62947;SDS011;51940;52.126;-0.994;2022-12-11T03:32:49;43.00;;;18.30;;
62947;SDS011;51940;52.126;-0.994;2022-12-11T03:37:53;34.10;;;16.30;;
62947;SDS011;51940;52.126;-0.994;2022-12-11T03:40:22;37.60;;;17.50;;
62947;SDS011;51940;52.126;-0.994;2022-12-11T03:42:50;34.40;;;15.50;;
62947;SDS011;51940;52.126;-0.994;2022-12-11T03:45:20;30.20;;;14.40;;
62947;SDS011;51940;52.126;-0.994;2022-12-11T03:47:48;28.20;;;13.00;;
62947;SDS011;51940;52.126;-0.994;2022-12-11T03:50:16;26.20;;;13.80;;
62947;SDS011;51940;52.126;-0.994;2022-12-11T03:52:44;27.20;;;13.70;;
62947;SDS011;51940;52.126;-0.994;2022-12-11T03:55:12;28.90;;;13.40;;
62947;SDS011;51940;52.126;-0.994;2022-12-11T03:57:40;25.80;;;13.40;;
62947;SDS011;51940;52.126;-0.994;2022-12-11T04:00:09;25.80;;;13.00;;
62947;SDS011;51940;52.126;-0.994;2022-12-11T04:02:37;27.40;;;13.10;;
62947;SDS011;51940;52.126;-0.994;2022-12-11T04:05:02;29.20;;;13.50;;
62947;SDS011;51940;52.126;-0.994;2022-12-11T04:07:28;30.60;;;13.60;;
62947;SDS011;51940;52.126;-0.994;2022-12-11T04:09:55;27.50;;;12.70;;
62947;SDS011;51940;52.126;-0.994;2022-12-11T04:12:20;30.00;;;13.30;;
62947;SDS011;51940;52.126;-0.994;2022-12-11T04:14:46;33.10;;;14.50;;
62947;SDS011;51940;52.126;-0.994;2022-12-11T04:17:27;31.00;;;14.80;;
62947;SDS011;51940;52.126;-0.994;2022-12-11T04:20:15;30.70;;;14.70;;
62947;SDS011;51940;52.126;-0.994;2022-12-11T04:23:02;35.80;;;16.40;;
62947;SDS011;51940;52.126;-0.994;2022-12-11T04:25:47;33.70;;;14.50;;
62947;SDS011;51940;52.126;-0.994;2022-12-11T04:28:12;34.20;;;15.60;;
62947;SDS011;51940;52.126;-0.994;2022-12-11T04:30:38;37.70;;;16.20;;
62947;SDS011;51940;52.126;-0.994;2022-12-11T04:33:03;33.20;;;16.10;;
62947;SDS011;51940;52.126;-0.994;2022-12-11T04:35:29;38.90;;;16.90;;
62947;SDS011;51940;52.126;-0.994;2022-12-11T04:37:54;36.60;;;16.30;;
62947;SDS011;51940;52.126;-0.994;2022-12-11T04:40:20;36.50;;;16.90;;
62947;SDS011;51940;52.126;-0.994;2022-12-11T04:42:46;35.30;;;16.40;;
62947;SDS011;51940;52.126;-0.994;2022-12-11T04:45:12;32.50;;;15.20;;
62947;SDS011;51940;52.126;-0.994;2022-12-11T04:47:38;37.20;;;17.30;;
62947;SDS011;51940;52.126;-0.994;2022-12-11T04:50:05;38.20;;;16.80;;
62947;SDS011;51940;52.126;-0.994;2022-12-11T04:52:31;38.00;;;17.40;;
62947;SDS011;51940;52.126;-0.994;2022-12-11T04:54:57;37.30;;;17.00;;
62947;SDS011;51940;52.126;-0.994;2022-12-11T04:57:22;36.50;;;16.20;;
62947;SDS011;51940;52.126;-0.994;2022-12-11T04:59:48;35.70;;;17.70;;
62947;SDS011;51940;52.126;-0.994;2022-12-11T05:02:13;30.40;;;14.70;;
62947;SDS011;51940;52.126;-0.994;2022-12-11T05:04:40;40.40;;;16.80;;
62947;SDS011;51940;52.126;-0.994;2022-12-11T05:07:06;32.50;;;16.20;;
62947;SDS011;51940;52.126;-0.994;2022-12-11T05:09:33;34.20;;;16.70;;
62947;SDS011;51940;52.126;-0.994;2022-12-11T05:11:59;34.70;;;16.10;;
62947;SDS011;51940;52.126;-0.994;2022-12-11T05:14:25;32.80;;;15.70;;
62947;SDS011;51940;52.126;-0.994;2022-12-11T05:16:51;35.00;;;15.40;;
62947;SDS011;51940;52.126;-0.994;2022-12-11T05:19:17;27.90;;;13.30;;
62947;SDS011;51940;52.126;-0.994;2022-12-11T05:21:42;30.90;;;14.90;;
62947;SDS011;51940;52.126;-0.994;2022-12-11T05:24:08;31.50;;;12.90;;
62947;SDS011;51940;52.126;-0.994;2022-12-11T05:26:33;27.80;;;13.30;;
62947;SDS011;51940;52.126;-0.994;2022-12-11T05:28:58;27.80;;;11.80;;
62947;SDS011;51940;52.126;-0.994;2022-12-11T05:31:25;28.00;;;13.20;;
62947;SDS011;51940;52.126;-0.994;2022-12-11T05:33:51;30.40;;;13.50;;
62947;SDS011;51940;52.126;-0.994;2022-12-11T05:38:46;28.10;;;13.90;;
62947;SDS011;51940;52.126;-0.994;2022-12-11T05:41:12;32.80;;;14.40;;
62947;SDS011;51940;52.126;-0.994;2022-12-11T05:43:41;30.80;;;13.50;;
62947;SDS011;51940;52.126;-0.994;2022-12-11T05:46:11;30.70;;;15.30;;
62947;SDS011;51940;52.126;-0.994;2022-12-11T05:48:38;30.30;;;14.50;;
62947;SDS011;51940;52.126;-0.994;2022-12-11T05:51:05;35.80;;;14.10;;
62947;SDS011;51940;52.126;-0.994;2022-12-11T05:53:32;26.90;;;13.40;;
62947;SDS011;51940;52.126;-0.994;2022-12-11T05:56:03;26.30;;;12.40;;
62947;SDS011;51940;52.126;-0.994;2022-12-11T05:58:31;28.10;;;13.10;;
62947;SDS011;51940;52.126;-0.994;2022-12-11T06:00:57;18.90;;;10.50;;
62947;SDS011;51940;52.126;-0.994;2022-12-11T06:03:23;29.40;;;12.40;;
62947;SDS011;51940;52.126;-0.994;2022-12-11T06:05:49;26.10;;;11.80;;
62947;SDS011;51940;52.126;-0.994;2022-12-11T06:08:15;27.90;;;12.60;;
62947;SDS011;51940;52.126;-0.994;2022-12-11T06:10:43;26.30;;;12.30;;
62947;SDS011;51940;52.126;-0.994;2022-12-11T06:13:13;32.10;;;13.50;;
62947;SDS011;51940;52.126;-0.994;2022-12-11T06:15:39;30.70;;;13.10;;
62947;SDS011;51940;52.126;-0.994;2022-12-11T06:18:04;27.10;;;12.10;;
62947;SDS011;51940;52.126;-0.994;2022-12-11T06:20:30;24.70;;;12.00;;
62947;SDS011;51940;52.126;-0.994;2022-12-11T06:22:57;29.80;;;13.20;;
62947;SDS011;51940;52.126;-0.994;2022-12-11T06:25:23;26.60;;;12.80;;
62947;SDS011;51940;52.126;-0.994;2022-12-11T06:27:49;29.00;;;13.20;;
62947;SDS011;51940;52.126;-0.994;2022-12-11T06:30:14;31.60;;;13.60;;
62947;SDS011;51940;52.126;-0.994;2022-12-11T06:32:40;32.00;;;13.80;;
62947;SDS011;51940;52.126;-0.994;2022-12-11T06:35:07;30.30;;;12.80;;
62947;SDS011;51940;52.126;-0.994;2022-12-11T06:37:33;29.50;;;13.80;;
62947;SDS011;51940;52.126;-0.994;2022-12-11T06:39:59;29.40;;;13.60;;
62947;SDS011;51940;52.126;-0.994;2022-12-11T06:42:25;34.80;;;13.80;;
62947;SDS011;51940;52.126;-0.994;2022-12-11T06:44:50;30.70;;;13.20;;
62947;SDS011;51940;52.126;-0.994;2022-12-11T06:47:15;33.40;;;13.80;;
62947;SDS011;51940;52.126;-0.994;2022-12-11T06:49:41;29.50;;;13.70;;
62947;SDS011;51940;52.126;-0.994;2022-12-11T06:52:06;40.20;;;13.60;;
62947;SDS011;51940;52.126;-0.994;2022-12-11T06:54:31;30.00;;;13.80;;
62947;SDS011;51940;52.126;-0.994;2022-12-11T06:56:57;31.80;;;14.80;;
62947;SDS011;51940;52.126;-0.994;2022-12-11T06:59:22;31.00;;;13.80;;
62947;SDS011;51940;52.126;-0.994;2022-12-11T07:01:48;28.60;;;13.40;;
62947;SDS011;51940;52.126;-0.994;2022-12-11T07:04:13;29.70;;;13.90;;
62947;SDS011;51940;52.126;-0.994;2022-12-11T07:06:39;28.20;;;12.60;;
62947;SDS011;51940;52.126;-0.994;2022-12-11T07:09:04;29.70;;;13.40;;
62947;SDS011;51940;52.126;-0.994;2022-12-11T07:11:31;32.60;;;13.30;;
62947;SDS011;51940;52.126;-0.994;2022-12-11T07:13:57;28.60;;;12.60;;
62947;SDS011;51940;52.126;-0.994;2022-12-11T07:16:24;29.90;;;12.70;;
62947;SDS011;51940;52.126;-0.994;2022-12-11T07:18:50;31.90;;;12.80;;
62947;SDS011;51940;52.126;-0.994;2022-12-11T07:21:16;28.60;;;13.40;;
62947;SDS011;51940;52.126;-0.994;2022-12-11T07:23:42;28.20;;;12.90;;
62947;SDS011;51940;52.126;-0.994;2022-12-11T07:26:15;27.00;;;12.30;;
62947;SDS011;51940;52.126;-0.994;2022-12-11T07:31:09;25.10;;;11.20;;
62947;SDS011;51940;52.126;-0.994;2022-12-11T07:33:43;25.50;;;11.30;;
62947;SDS011;51940;52.126;-0.994;2022-12-11T07:36:10;30.30;;;13.20;;
62947;SDS011;51940;52.126;-0.994;2022-12-11T07:38:36;28.00;;;12.60;;
62947;SDS011;51940;52.126;-0.994;2022-12-11T07:41:03;26.40;;;12.30;;
62947;SDS011;51940;52.126;-0.994;2022-12-11T07:43:31;27.60;;;12.30;;
62947;SDS011;51940;52.126;-0.994;2022-12-11T07:46:04;34.00;;;12.40;;
62947;SDS011;51940;52.126;-0.994;2022-12-11T07:48:35;24.90;;;11.00;;
62947;SDS011;51940;52.126;-0.994;2022-12-11T07:51:12;24.60;;;12.10;;
62947;SDS011;51940;52.126;-0.994;2022-12-11T07:53:43;24.40;;;11.40;;
62947;SDS011;51940;52.126;-0.994;2022-12-11T07:56:10;28.30;;;11.50;;
62947;SDS011;51940;52.126;-0.994;2022-12-11T07:58:36;26.00;;;11.40;;
62947;SDS011;51940;52.126;-0.994;2022-12-11T08:01:10;26.90;;;12.00;;
62947;SDS011;51940;52.126;-0.994;2022-12-11T08:03:37;26.30;;;11.30;;
62947;SDS011;51940;52.126;-0.994;2022-12-11T08:06:04;27.90;;;12.10;;
62947;SDS011;51940;52.126;-0.994;2022-12-11T08:08:29;27.50;;;11.20;;
62947;SDS011;51940;52.126;-0.994;2022-12-11T08:10:55;22.10;;;10.10;;
62947;SDS011;51940;52.126;-0.994;2022-12-11T08:13:20;27.20;;;11.10;;
62947;SDS011;51940;52.126;-0.994;2022-12-11T08:15:46;25.10;;;11.20;;
62947;SDS011;51940;52.126;-0.994;2022-12-11T08:18:11;26.30;;;11.10;;
62947;SDS011;51940;52.126;-0.994;2022-12-11T08:20:37;34.90;;;13.20;;
62947;SDS011;51940;52.126;-0.994;2022-12-11T08:23:03;29.40;;;13.60;;
62947;SDS011;51940;52.126;-0.994;2022-12-11T08:25:29;30.80;;;13.00;;
62947;SDS011;51940;52.126;-0.994;2022-12-11T08:27:54;29.80;;;12.60;;
62947;SDS011;51940;52.126;-0.994;2022-12-11T08:30:20;36.90;;;12.70;;
62947;SDS011;51940;52.126;-0.994;2022-12-11T08:32:45;28.80;;;12.50;;
62947;SDS011;51940;52.126;-0.994;2022-12-11T08:35:11;29.00;;;12.30;;
62947;SDS011;51940;52.126;-0.994;2022-12-11T08:37:36;33.10;;;13.10;;
62947;SDS011;51940;52.126;-0.994;2022-12-11T08:40:02;34.80;;;13.10;;
62947;SDS011;51940;52.126;-0.994;2022-12-11T08:42:28;30.60;;;12.90;;
62947;SDS011;51940;52.126;-0.994;2022-12-11T08:44:53;31.50;;;12.90;;
62947;SDS011;51940;52.126;-0.994;2022-12-11T08:47:18;35.80;;;13.60;;
62947;SDS011;51940;52.126;-0.994;2022-12-11T08:49:44;39.20;;;13.60;;
62947;SDS011;51940;52.126;-0.994;2022-12-11T08:52:09;33.20;;;12.30;;
62947;SDS011;51940;52.126;-0.994;2022-12-11T08:54:38;33.90;;;15.40;;
62947;SDS011;51940;52.126;-0.994;2022-12-11T08:57:03;37.70;;;13.90;;
62947;SDS011;51940;52.126;-0.994;2022-12-11T08:59:29;31.80;;;12.80;;
62947;SDS011;51940;52.126;-0.994;2022-12-11T09:01:54;38.10;;;13.70;;
62947;SDS011;51940;52.126;-0.994;2022-12-11T09:04:20;33.90;;;13.10;;
62947;SDS011;51940;52.126;-0.994;2022-12-11T09:06:46;32.00;;;12.80;;
62947;SDS011;51940;52.126;-0.994;2022-12-11T09:09:12;32.80;;;12.30;;
62947;SDS011;51940;52.126;-0.994;2022-12-11T09:11:39;31.30;;;12.50;;
62947;SDS011;51940;52.126;-0.994;2022-12-11T09:14:04;34.60;;;12.90;;
62947;SDS011;51940;52.126;-0.994;2022-12-11T09:16:30;33.90;;;12.60;;
62947;SDS011;51940;52.126;-0.994;2022-12-11T09:18:58;31.50;;;12.80;;
62947;SDS011;51940;52.126;-0.994;2022-12-11T09:21:25;33.80;;;12.90;;
62947;SDS011;51940;52.126;-0.994;2022-12-11T09:23:53;32.70;;;13.00;;
62947;SDS011;51940;52.126;-0.994;2022-12-11T09:26:20;30.30;;;12.70;;
62947;SDS011;51940;52.126;-0.994;2022-12-11T09:28:46;29.90;;;12.10;;
62947;SDS011;51940;52.126;-0.994;2022-12-11T09:33:43;32.70;;;12.70;;
62947;SDS011;51940;52.126;-0.994;2022-12-11T09:36:09;32.40;;;11.90;;
62947;SDS011;51940;52.126;-0.994;2022-12-11T09:38:36;31.70;;;13.00;;
62947;SDS011;51940;52.126;-0.994;2022-12-11T09:41:14;33.70;;;13.40;;
62947;SDS011;51940;52.126;-0.994;2022-12-11T09:43:46;34.70;;;13.00;;
62947;SDS011;51940;52.126;-0.994;2022-12-11T09:46:21;34.60;;;11.50;;
62947;SDS011;51940;52.126;-0.994;2022-12-11T09:48:48;29.80;;;11.70;;
62947;SDS011;51940;52.126;-0.994;2022-12-11T09:51:26;33.80;;;11.30;;
62947;SDS011;51940;52.126;-0.994;2022-12-11T09:54:03;32.30;;;11.80;;
62947;SDS011;51940;52.126;-0.994;2022-12-11T09:56:32;34.10;;;13.20;;
62947;SDS011;51940;52.126;-0.994;2022-12-11T09:59:17;26.50;;;10.90;;
62947;SDS011;51940;52.126;-0.994;2022-12-11T10:02:04;33.10;;;11.40;;
62947;SDS011;51940;52.126;-0.994;2022-12-11T10:07:33;28.50;;;11.30;;
62947;SDS011;51940;52.126;-0.994;2022-12-11T10:15:21;31.20;;;11.90;;
62947;SDS011;51940;52.126;-0.994;2022-12-11T10:17:49;33.00;;;12.50;;
62947;SDS011;51940;52.126;-0.994;2022-12-11T10:22:52;33.90;;;12.70;;
62947;SDS011;51940;52.126;-0.994;2022-12-11T10:25:24;33.40;;;11.80;;
62947;SDS011;51940;52.126;-0.994;2022-12-11T10:27:53;33.60;;;12.10;;
62947;SDS011;51940;52.126;-0.994;2022-12-11T10:30:21;38.60;;;11.90;;
62947;SDS011;51940;52.126;-0.994;2022-12-11T10:32:52;33.40;;;12.30;;
62947;SDS011;51940;52.126;-0.994;2022-12-11T10:35:28;33.70;;;12.50;;
62947;SDS011;51940;52.126;-0.994;2022-12-11T10:38:33;32.50;;;12.20;;
62947;SDS011;51940;52.126;-0.994;2022-12-11T10:41:18;35.20;;;12.70;;
62947;SDS011;51940;52.126;-0.994;2022-12-11T10:43:50;33.80;;;11.20;;
62947;SDS011;51940;52.126;-0.994;2022-12-11T10:46:24;31.50;;;12.00;;
62947;SDS011;51940;52.126;-0.994;2022-12-11T10:48:55;31.50;;;12.60;;
62947;SDS011;51940;52.126;-0.994;2022-12-11T10:51:40;28.40;;;10.10;;
62947;SDS011;51940;52.126;-0.994;2022-12-11T10:54:07;32.80;;;11.60;;
62947;SDS011;51940;52.126;-0.994;2022-12-11T10:56:51;31.00;;;11.50;;
62947;SDS011;51940;52.126;-0.994;2022-12-11T11:02:03;31.50;;;11.70;;
62947;SDS011;51940;52.126;-0.994;2022-12-11T11:04:31;34.70;;;12.60;;
62947;SDS011;51940;52.126;-0.994;2022-12-11T11:07:02;33.60;;;12.00;;
62947;SDS011;51940;52.126;-0.994;2022-12-11T11:09:36;26.40;;;11.10;;
62947;SDS011;51940;52.126;-0.994;2022-12-11T11:12:04;32.50;;;12.80;;
62947;SDS011;51940;52.126;-0.994;2022-12-11T11:15:01;32.60;;;12.90;;
62947;SDS011;51940;52.126;-0.994;2022-12-11T11:17:30;33.10;;;12.90;;
62947;SDS011;51940;52.126;-0.994;2022-12-11T11:19:58;33.90;;;13.60;;
62947;SDS011;51940;52.126;-0.994;2022-12-11T11:22:29;35.60;;;14.90;;
62947;SDS011;51940;52.126;-0.994;2022-12-11T11:24:57;33.90;;;14.00;;
62947;SDS011;51940;52.126;-0.994;2022-12-11T11:27:30;32.10;;;14.10;;
62947;SDS011;51940;52.126;-0.994;2022-12-11T11:30:03;33.50;;;13.40;;
62947;SDS011;51940;52.126;-0.994;2022-12-11T11:32:36;30.70;;;13.30;;
62947;SDS011;51940;52.126;-0.994;2022-12-11T11:37:35;27.40;;;11.90;;
62947;SDS011;51940;52.126;-0.994;2022-12-11T11:40:24;25.10;;;12.20;;
62947;SDS011;51940;52.126;-0.994;2022-12-11T11:45:25;27.60;;;12.20;;
62947;SDS011;51940;52.126;-0.994;2022-12-11T11:50:37;29.60;;;13.40;;
62947;SDS011;51940;52.126;-0.994;2022-12-11T11:55:50;29.10;;;13.10;;
62947;SDS011;51940;52.126;-0.994;2022-12-11T11:58:59;28.10;;;12.60;;
62947;SDS011;51940;52.126;-0.994;2022-12-11T12:01:24;28.00;;;12.60;;
62947;SDS011;51940;52.126;-0.994;2022-12-11T12:03:50;27.20;;;12.60;;
62947;SDS011;51940;52.126;-0.994;2022-12-11T12:12:08;27.20;;;12.30;;
62947;SDS011;51940;52.126;-0.994;2022-12-11T12:14:57;29.60;;;12.50;;
62947;SDS011;51940;52.126;-0.994;2022-12-11T12:40:38;27.80;;;13.70;;
62947;SDS011;51940;52.126;-0.994;2022-12-11T12:48:34;25.80;;;12.00;;
62947;SDS011;51940;52.126;-0.994;2022-12-11T12:51:00;26.70;;;12.00;;
62947;SDS011;51940;52.126;-0.994;2022-12-11T12:53:27;26.80;;;11.40;;
62947;SDS011;51940;52.126;-0.994;2022-12-11T12:55:57;24.50;;;11.20;;
62947;SDS011;51940;52.126;-0.994;2022-12-11T13:00:53;22.60;;;10.80;;
62947;SDS011;51940;52.126;-0.994;2022-12-11T13:03:31;24.10;;;10.40;;
62947;SDS011;51940;52.126;-0.994;2022-12-11T13:06:07;24.80;;;11.00;;
62947;SDS011;51940;52.126;-0.994;2022-12-11T13:08:41;27.50;;;13.40;;
62947;SDS011;51940;52.126;-0.994;2022-12-11T13:11:11;22.60;;;10.80;;
62947;SDS011;51940;52.126;-0.994;2022-12-11T13:13:41;25.60;;;11.60;;
62947;SDS011;51940;52.126;-0.994;2022-12-11T13:18:47;23.10;;;10.70;;
62947;SDS011;51940;52.126;-0.994;2022-12-11T13:21:32;25.60;;;10.90;;
62947;SDS011;51940;52.126;-0.994;2022-12-11T13:26:37;32.30;;;13.30;;
62947;SDS011;51940;52.126;-0.994;2022-12-11T13:29:03;27.30;;;11.80;;
62947;SDS011;51940;52.126;-0.994;2022-12-11T13:31:34;24.90;;;11.60;;
62947;SDS011;51940;52.126;-0.994;2022-12-11T13:34:35;28.50;;;12.20;;
62947;SDS011;51940;52.126;-0.994;2022-12-11T13:39:23;26.10;;;11.50;;
62947;SDS011;51940;52.126;-0.994;2022-12-11T13:41:53;25.60;;;11.50;;
62947;SDS011;51940;52.126;-0.994;2022-12-11T13:44:25;25.00;;;11.40;;
62947;SDS011;51940;52.126;-0.994;2022-12-11T13:46:54;23.50;;;11.20;;
62947;SDS011;51940;52.126;-0.994;2022-12-11T13:49:23;24.50;;;11.70;;
62947;SDS011;51940;52.126;-0.994;2022-12-11T13:51:56;26.60;;;13.30;;
62947;SDS011;51940;52.126;-0.994;2022-12-11T13:54:24;27.20;;;11.80;;
62947;SDS011;51940;52.126;-0.994;2022-12-11T13:59:27;24.40;;;10.80;;
62947;SDS011;51940;52.126;-0.994;2022-12-11T14:02:04;27.50;;;11.50;;
62947;SDS011;51940;52.126;-0.994;2022-12-11T14:04:39;25.10;;;11.50;;
62947;SDS011;51940;52.126;-0.994;2022-12-11T14:07:06;28.80;;;12.30;;
62947;SDS011;51940;52.126;-0.994;2022-12-11T14:09:33;29.50;;;11.70;;
62947;SDS011;51940;52.126;-0.994;2022-12-11T14:12:03;30.70;;;12.10;;
62947;SDS011;51940;52.126;-0.994;2022-12-11T14:14:33;26.30;;;11.60;;
62947;SDS011;51940;52.126;-0.994;2022-12-11T14:17:10;27.40;;;11.60;;
62947;SDS011;51940;52.126;-0.994;2022-12-11T14:19:39;27.50;;;11.20;;
62947;SDS011;51940;52.126;-0.994;2022-12-11T14:22:18;24.30;;;10.20;;
62947;SDS011;51940;52.126;-0.994;2022-12-11T14:24:50;29.30;;;12.00;;
62947;SDS011;51940;52.126;-0.994;2022-12-11T14:27:17;33.60;;;14.20;;
62947;SDS011;51940;52.126;-0.994;2022-12-11T14:29:43;31.90;;;13.30;;
62947;SDS011;51940;52.126;-0.994;2022-12-11T14:32:12;30.10;;;11.70;;
62947;SDS011;51940;52.126;-0.994;2022-12-11T14:35:02;30.90;;;13.70;;
62947;SDS011;51940;52.126;-0.994;2022-12-11T14:37:32;38.50;;;14.70;;
62947;SDS011;51940;52.126;-0.994;2022-12-11T14:40:00;40.40;;;16.50;;
62947;SDS011;51940;52.126;-0.994;2022-12-11T14:42:32;38.80;;;15.90;;
62947;SDS011;51940;52.126;-0.994;2022-12-11T14:47:58;37.00;;;13.90;;
62947;SDS011;51940;52.126;-0.994;2022-12-11T14:50:28;38.70;;;16.00;;
62947;SDS011;51940;52.126;-0.994;2022-12-11T14:53:07;44.10;;;16.90;;
62947;SDS011;51940;52.126;-0.994;2022-12-11T14:55:37;41.60;;;14.90;;
62947;SDS011;51940;52.126;-0.994;2022-12-11T14:58:05;34.80;;;13.50;;
62947;SDS011;51940;52.126;-0.994;2022-12-11T15:00:39;41.00;;;15.60;;
62947;SDS011;51940;52.126;-0.994;2022-12-11T15:03:05;42.60;;;17.00;;
62947;SDS011;51940;52.126;-0.994;2022-12-11T15:06:29;45.80;;;17.50;;
62947;SDS011;51940;52.126;-0.994;2022-12-11T15:08:53;35.00;;;12.50;;
62947;SDS011;51940;52.126;-0.994;2022-12-11T15:11:19;39.40;;;16.40;;
62947;SDS011;51940;52.126;-0.994;2022-12-11T15:13:56;42.40;;;17.70;;
62947;SDS011;51940;52.126;-0.994;2022-12-11T15:18:51;31.60;;;12.70;;
62947;SDS011;51940;52.126;-0.994;2022-12-11T15:21:18;34.70;;;14.30;;
62947;SDS011;51940;52.126;-0.994;2022-12-11T15:27:05;34.50;;;13.60;;
62947;SDS011;51940;52.126;-0.994;2022-12-11T15:31:59;39.10;;;16.50;;
62947;SDS011;51940;52.126;-0.994;2022-12-11T15:34:47;46.00;;;19.40;;
62947;SDS011;51940;52.126;-0.994;2022-12-11T15:37:19;45.00;;;17.40;;
62947;SDS011;51940;52.126;-0.994;2022-12-11T15:39:44;40.20;;;16.10;;
62947;SDS011;51940;52.126;-0.994;2022-12-11T15:42:10;42.50;;;17.40;;
62947;SDS011;51940;52.126;-0.994;2022-12-11T15:44:39;43.60;;;16.90;;
62947;SDS011;51940;52.126;-0.994;2022-12-11T15:47:20;46.60;;;17.90;;
62947;SDS011;51940;52.126;-0.994;2022-12-11T15:49:46;46.30;;;18.00;;
62947;SDS011;51940;52.126;-0.994;2022-12-11T15:52:12;47.40;;;18.10;;
62947;SDS011;51940;52.126;-0.994;2022-12-11T15:54:37;46.90;;;17.40;;
62947;SDS011;51940;52.126;-0.994;2022-12-11T15:57:03;48.40;;;18.10;;
62947;SDS011;51940;52.126;-0.994;2022-12-11T15:59:31;44.70;;;16.20;;
62947;SDS011;51940;52.126;-0.994;2022-12-11T16:01:57;44.20;;;17.20;;
62947;SDS011;51940;52.126;-0.994;2022-12-11T16:04:22;45.80;;;16.10;;
62947;SDS011;51940;52.126;-0.994;2022-12-11T16:06:48;48.70;;;18.20;;
62947;SDS011;51940;52.126;-0.994;2022-12-11T16:09:13;51.30;;;19.10;;
62947;SDS011;51940;52.126;-0.994;2022-12-11T16:11:39;45.60;;;17.60;;
62947;SDS011;51940;52.126;-0.994;2022-12-11T16:14:05;42.90;;;15.80;;
62947;SDS011;51940;52.126;-0.994;2022-12-11T16:16:30;51.60;;;18.80;;
62947;SDS011;51940;52.126;-0.994;2022-12-11T16:18:56;49.60;;;18.20;;
62947;SDS011;51940;52.126;-0.994;2022-12-11T16:21:21;43.00;;;15.10;;
62947;SDS011;51940;52.126;-0.994;2022-12-11T16:23:47;54.10;;;19.80;;